sensor_id;sensor_type;location;lat;lon;timestamp;pressure;altitude;pressure_sealevel;temperature;humidity
53526;BME280;40551;50.478;19.378;2022-07-10T00:02:18;98009.95;;;13.75;71.75
53526;BME280;40551;50.478;19.378;2022-07-10T00:04:50;98005.36;;;13.78;71.73
53526;BME280;40551;50.478;19.378;2022-07-10T00:07:22;98001.94;;;13.81;71.71
53526;BME280;40551;50.478;19.378;2022-07-10T00:09:54;98002.13;;;13.82;71.82
53526;BME280;40551;50.478;19.378;2022-07-10T00:12:25;98002.04;;;13.85;72.10
53526;BME280;40551;50.478;19.378;2022-07-10T00:14:57;97999.55;;;13.89;71.96
53526;BME280;40551;50.478;19.378;2022-07-10T00:17:30;97996.41;;;13.92;72.00
53526;BME280;40551;50.478;19.378;2022-07-10T00:20:02;97997.08;;;13.94;72.05
53526;BME280;40551;50.478;19.378;2022-07-10T00:22:34;97992.28;;;13.95;72.00
53526;BME280;40551;50.478;19.378;2022-07-10T00:25:09;97990.48;;;13.96;72.01
53526;BME280;40551;50.478;19.378;2022-07-10T00:27:42;97983.58;;;13.93;71.61
53526;BME280;40551;50.478;19.378;2022-07-10T00:30:13;97979.86;;;13.90;71.64
53526;BME280;40551;50.478;19.378;2022-07-10T00:32:45;97978.97;;;13.91;71.81
53526;BME280;40551;50.478;19.378;2022-07-10T00:35:17;97973.40;;;13.92;71.86
53526;BME280;40551;50.478;19.378;2022-07-10T00:37:48;97972.61;;;13.93;72.04
53526;BME280;40551;50.478;19.378;2022-07-10T00:40:20;97968.79;;;13.93;72.01
53526;BME280;40551;50.478;19.378;2022-07-10T00:42:52;97964.21;;;13.92;71.98
53526;BME280;40551;50.478;19.378;2022-07-10T00:45:24;97963.76;;;13.89;71.88
53526;BME280;40551;50.478;19.378;2022-07-10T00:47:56;97962.80;;;13.88;72.05
53526;BME280;40551;50.478;19.378;2022-07-10T00:50:27;97961.45;;;13.86;72.00
53526;BME280;40551;50.478;19.378;2022-07-10T00:53:00;97960.56;;;13.85;72.05
53526;BME280;40551;50.478;19.378;2022-07-10T00:55:34;97958.40;;;13.84;72.23
53526;BME280;40551;50.478;19.378;2022-07-10T00:58:07;97956.60;;;13.84;72.30
53526;BME280;40551;50.478;19.378;2022-07-10T01:00:40;97954.60;;;13.83;72.38
53526;BME280;40551;50.478;19.378;2022-07-10T01:03:12;97948.20;;;13.83;72.37
53526;BME280;40551;50.478;19.378;2022-07-10T01:05:44;97944.42;;;13.82;72.45
53526;BME280;40551;50.478;19.378;2022-07-10T01:08:15;97943.64;;;13.81;72.59
53526;BME280;40551;50.478;19.378;2022-07-10T01:10:49;97937.39;;;13.81;72.66
53526;BME280;40551;50.478;19.378;2022-07-10T01:13:20;97935.20;;;13.82;72.72
53526;BME280;40551;50.478;19.378;2022-07-10T01:15:53;97925.84;;;13.85;72.83
53526;BME280;40551;50.478;19.378;2022-07-10T01:18:26;97923.02;;;13.87;72.75
53526;BME280;40551;50.478;19.378;2022-07-10T01:20:58;97920.18;;;13.89;72.86
53526;BME280;40551;50.478;19.378;2022-07-10T01:23:29;97917.46;;;13.89;72.81
53526;BME280;40551;50.478;19.378;2022-07-10T01:26:01;97914.23;;;13.83;72.13
53526;BME280;40551;50.478;19.378;2022-07-10T01:28:33;97914.27;;;13.75;72.27
53526;BME280;40551;50.478;19.378;2022-07-10T01:31:06;97910.70;;;13.69;72.52
53526;BME280;40551;50.478;19.378;2022-07-10T01:33:38;97918.67;;;13.63;72.77
53526;BME280;40551;50.478;19.378;2022-07-10T01:36:09;97916.13;;;13.58;72.79
53526;BME280;40551;50.478;19.378;2022-07-10T01:38:42;97913.98;;;13.57;72.91
53526;BME280;40551;50.478;19.378;2022-07-10T01:41:14;97909.55;;;13.54;73.02
53526;BME280;40551;50.478;19.378;2022-07-10T01:43:46;97907.20;;;13.53;73.13
53526;BME280;40551;50.478;19.378;2022-07-10T01:46:19;97906.38;;;13.45;72.70
53526;BME280;40551;50.478;19.378;2022-07-10T01:48:51;97906.91;;;13.33;72.63
53526;BME280;40551;50.478;19.378;2022-07-10T01:51:23;97904.27;;;13.26;72.89
53526;BME280;40551;50.478;19.378;2022-07-10T01:53:54;97903.80;;;13.20;73.27
53526;BME280;40551;50.478;19.378;2022-07-10T01:56:26;97901.54;;;13.19;73.40
53526;BME280;40551;50.478;19.378;2022-07-10T01:58:58;97896.84;;;13.20;73.58
53526;BME280;40551;50.478;19.378;2022-07-10T02:01:33;97891.93;;;13.22;73.66
53526;BME280;40551;50.478;19.378;2022-07-10T02:04:05;97891.91;;;13.24;73.74
53526;BME280;40551;50.478;19.378;2022-07-10T02:06:55;97889.48;;;13.25;73.89
53526;BME280;40551;50.478;19.378;2022-07-10T02:09:26;97882.83;;;13.27;73.92
53526;BME280;40551;50.478;19.378;2022-07-10T02:11:58;97879.27;;;13.26;73.96
53526;BME280;40551;50.478;19.378;2022-07-10T02:14:30;97881.52;;;13.26;74.04
53526;BME280;40551;50.478;19.378;2022-07-10T02:17:02;97880.96;;;13.28;74.28
53526;BME280;40551;50.478;19.378;2022-07-10T02:19:34;97889.17;;;13.31;74.06
53526;BME280;40551;50.478;19.378;2022-07-10T02:22:06;97884.39;;;13.34;74.01
53526;BME280;40551;50.478;19.378;2022-07-10T02:24:38;97883.99;;;13.36;73.94
53526;BME280;40551;50.478;19.378;2022-07-10T02:27:10;97882.69;;;13.39;74.07
53526;BME280;40551;50.478;19.378;2022-07-10T02:29:41;97882.16;;;13.39;73.84
53526;BME280;40551;50.478;19.378;2022-07-10T02:32:13;97877.58;;;13.38;73.84
53526;BME280;40551;50.478;19.378;2022-07-10T02:34:44;97878.98;;;13.38;74.03
53526;BME280;40551;50.478;19.378;2022-07-10T02:37:16;97880.86;;;13.36;73.92
53526;BME280;40551;50.478;19.378;2022-07-10T02:39:48;97879.59;;;13.35;74.17
53526;BME280;40551;50.478;19.378;2022-07-10T02:42:20;97877.02;;;13.36;74.26
53526;BME280;40551;50.478;19.378;2022-07-10T02:44:52;97872.48;;;13.38;74.22
53526;BME280;40551;50.478;19.378;2022-07-10T02:47:23;97873.50;;;13.38;74.14
53526;BME280;40551;50.478;19.378;2022-07-10T02:49:55;97872.56;;;13.41;74.51
53526;BME280;40551;50.478;19.378;2022-07-10T02:52:27;97868.27;;;13.45;74.67
53526;BME280;40551;50.478;19.378;2022-07-10T02:55:01;97861.34;;;13.50;74.74
53526;BME280;40551;50.478;19.378;2022-07-10T02:57:32;97854.91;;;13.52;74.50
53526;BME280;40551;50.478;19.378;2022-07-10T03:00:07;97861.12;;;13.56;74.67
53526;BME280;40551;50.478;19.378;2022-07-10T03:02:38;97856.63;;;13.59;74.57
53526;BME280;40551;50.478;19.378;2022-07-10T03:05:10;97849.44;;;13.59;74.50
53526;BME280;40551;50.478;19.378;2022-07-10T03:07:42;97845.70;;;13.58;74.26
53526;BME280;40551;50.478;19.378;2022-07-10T03:10:14;97851.91;;;13.58;74.47
53526;BME280;40551;50.478;19.378;2022-07-10T03:12:46;97849.61;;;13.58;74.34
53526;BME280;40551;50.478;19.378;2022-07-10T03:15:18;97853.97;;;13.58;74.41
53526;BME280;40551;50.478;19.378;2022-07-10T03:17:50;97851.83;;;13.56;74.29
53526;BME280;40551;50.478;19.378;2022-07-10T03:20:22;97845.64;;;13.58;74.31
53526;BME280;40551;50.478;19.378;2022-07-10T03:22:54;97843.42;;;13.59;74.59
53526;BME280;40551;50.478;19.378;2022-07-10T03:25:26;97841.73;;;13.62;74.57
53526;BME280;40551;50.478;19.378;2022-07-10T03:27:57;97843.67;;;13.63;74.50
53526;BME280;40551;50.478;19.378;2022-07-10T03:30:29;97847.25;;;13.66;74.52
53526;BME280;40551;50.478;19.378;2022-07-10T03:33:01;97846.31;;;13.68;74.62
53526;BME280;40551;50.478;19.378;2022-07-10T03:35:33;97845.45;;;13.71;74.70
53526;BME280;40551;50.478;19.378;2022-07-10T03:38:05;97848.12;;;13.76;74.58
53526;BME280;40551;50.478;19.378;2022-07-10T03:40:37;97851.14;;;13.79;74.50
53526;BME280;40551;50.478;19.378;2022-07-10T03:43:09;97848.64;;;13.84;74.38
53526;BME280;40551;50.478;19.378;2022-07-10T03:45:40;97851.26;;;13.90;74.51
53526;BME280;40551;50.478;19.378;2022-07-10T03:48:12;97851.00;;;13.94;74.37
53526;BME280;40551;50.478;19.378;2022-07-10T03:50:44;97854.38;;;13.96;74.42
53526;BME280;40551;50.478;19.378;2022-07-10T03:53:15;97860.31;;;14.00;74.55
53526;BME280;40551;50.478;19.378;2022-07-10T03:55:47;97862.59;;;14.04;74.46
53526;BME280;40551;50.478;19.378;2022-07-10T03:58:19;97867.40;;;14.06;74.57
53526;BME280;40551;50.478;19.378;2022-07-10T04:00:51;97862.67;;;14.05;74.46
53526;BME280;40551;50.478;19.378;2022-07-10T04:03:23;97862.63;;;14.05;74.26
53526;BME280;40551;50.478;19.378;2022-07-10T04:05:55;97861.14;;;14.04;74.25
53526;BME280;40551;50.478;19.378;2022-07-10T04:08:26;97858.69;;;14.04;74.25
53526;BME280;40551;50.478;19.378;2022-07-10T04:10:58;97860.02;;;14.03;74.32
53526;BME280;40551;50.478;19.378;2022-07-10T04:13:29;97856.45;;;14.02;74.54
53526;BME280;40551;50.478;19.378;2022-07-10T04:16:02;97860.31;;;14.03;74.52
53526;BME280;40551;50.478;19.378;2022-07-10T04:18:34;97856.70;;;14.05;74.50
53526;BME280;40551;50.478;19.378;2022-07-10T04:21:06;97865.23;;;14.10;74.65
53526;BME280;40551;50.478;19.378;2022-07-10T04:23:38;97864.59;;;14.15;74.74
53526;BME280;40551;50.478;19.378;2022-07-10T04:26:10;97870.30;;;14.18;74.72
53526;BME280;40551;50.478;19.378;2022-07-10T04:28:41;97867.20;;;14.20;74.69
53526;BME280;40551;50.478;19.378;2022-07-10T04:31:13;97868.20;;;14.20;74.82
53526;BME280;40551;50.478;19.378;2022-07-10T04:33:45;97867.98;;;14.19;75.00
53526;BME280;40551;50.478;19.378;2022-07-10T04:36:16;97869.55;;;14.19;75.06
53526;BME280;40551;50.478;19.378;2022-07-10T04:38:48;97867.92;;;14.19;75.25
53526;BME280;40551;50.478;19.378;2022-07-10T04:41:20;97868.11;;;14.23;75.31
53526;BME280;40551;50.478;19.378;2022-07-10T04:43:51;97869.07;;;14.24;75.25
53526;BME280;40551;50.478;19.378;2022-07-10T04:46:23;97866.71;;;14.23;75.39
53526;BME280;40551;50.478;19.378;2022-07-10T04:48:55;97864.52;;;14.22;75.71
53526;BME280;40551;50.478;19.378;2022-07-10T04:51:26;97863.87;;;14.23;75.77
53526;BME280;40551;50.478;19.378;2022-07-10T04:53:58;97865.42;;;14.27;75.97
53526;BME280;40551;50.478;19.378;2022-07-10T04:56:30;97866.15;;;14.32;76.10
53526;BME280;40551;50.478;19.378;2022-07-10T04:59:01;97862.16;;;14.36;76.10
53526;BME280;40551;50.478;19.378;2022-07-10T05:01:33;97854.99;;;14.38;75.86
53526;BME280;40551;50.478;19.378;2022-07-10T05:04:05;97852.41;;;14.38;75.75
53526;BME280;40551;50.478;19.378;2022-07-10T05:06:37;97853.88;;;14.37;75.90
53526;BME280;40551;50.478;19.378;2022-07-10T05:09:08;97851.94;;;14.37;75.71
53526;BME280;40551;50.478;19.378;2022-07-10T05:11:40;97860.39;;;14.38;75.91
53526;BME280;40551;50.478;19.378;2022-07-10T05:14:12;97862.79;;;14.39;75.83
53526;BME280;40551;50.478;19.378;2022-07-10T05:16:43;97863.66;;;14.35;75.86
53526;BME280;40551;50.478;19.378;2022-07-10T05:19:15;97869.73;;;14.36;76.11
53526;BME280;40551;50.478;19.378;2022-07-10T05:21:47;97871.67;;;14.39;76.35
53526;BME280;40551;50.478;19.378;2022-07-10T05:24:19;97869.48;;;14.38;76.35
53526;BME280;40551;50.478;19.378;2022-07-10T05:26:50;97870.09;;;14.41;76.56
53526;BME280;40551;50.478;19.378;2022-07-10T05:29:22;97870.52;;;14.47;76.63
53526;BME280;40551;50.478;19.378;2022-07-10T05:31:54;97871.55;;;14.55;77.00
53526;BME280;40551;50.478;19.378;2022-07-10T05:34:27;97870.58;;;14.66;77.24
53526;BME280;40551;50.478;19.378;2022-07-10T05:36:59;97873.63;;;15.04;77.85
53526;BME280;40551;50.478;19.378;2022-07-10T05:39:32;97863.27;;;15.98;79.07
53526;BME280;40551;50.478;19.378;2022-07-10T05:42:04;97865.11;;;16.65;76.55
53526;BME280;40551;50.478;19.378;2022-07-10T05:44:36;97864.98;;;16.87;72.60
53526;BME280;40551;50.478;19.378;2022-07-10T05:47:07;97866.90;;;16.98;72.04
53526;BME280;40551;50.478;19.378;2022-07-10T05:49:39;97867.17;;;17.38;71.83
53526;BME280;40551;50.478;19.378;2022-07-10T05:52:11;97866.45;;;17.91;71.11
53526;BME280;40551;50.478;19.378;2022-07-10T05:54:43;97869.49;;;17.96;69.03
53526;BME280;40551;50.478;19.378;2022-07-10T05:57:14;97872.84;;;17.84;68.36
53526;BME280;40551;50.478;19.378;2022-07-10T05:59:46;97874.40;;;17.68;67.94
53526;BME280;40551;50.478;19.378;2022-07-10T06:02:18;97872.84;;;17.48;67.61
53526;BME280;40551;50.478;19.378;2022-07-10T06:04:54;97878.51;;;17.35;67.81
53526;BME280;40551;50.478;19.378;2022-07-10T06:07:26;97876.34;;;17.31;68.20
53526;BME280;40551;50.478;19.378;2022-07-10T06:09:58;97878.21;;;17.45;68.93
53526;BME280;40551;50.478;19.378;2022-07-10T06:12:30;97875.60;;;17.69;68.11
53526;BME280;40551;50.478;19.378;2022-07-10T06:15:01;97872.80;;;17.65;66.79
53526;BME280;40551;50.478;19.378;2022-07-10T06:17:33;97873.59;;;17.91;67.14
53526;BME280;40551;50.478;19.378;2022-07-10T06:20:06;97876.35;;;17.95;65.96
53526;BME280;40551;50.478;19.378;2022-07-10T06:22:38;97878.29;;;17.85;65.58
53526;BME280;40551;50.478;19.378;2022-07-10T06:25:12;97877.35;;;17.91;65.80
53526;BME280;40551;50.478;19.378;2022-07-10T06:27:44;97873.20;;;18.05;65.88
53526;BME280;40551;50.478;19.378;2022-07-10T06:30:15;97871.73;;;18.38;66.72
53526;BME280;40551;50.478;19.378;2022-07-10T06:32:47;97877.30;;;18.57;65.17
53526;BME280;40551;50.478;19.378;2022-07-10T06:35:19;97873.50;;;18.30;62.53
53526;BME280;40551;50.478;19.378;2022-07-10T06:37:50;97875.54;;;17.97;62.62
53526;BME280;40551;50.478;19.378;2022-07-10T06:40:22;97878.84;;;17.75;63.62
53526;BME280;40551;50.478;19.378;2022-07-10T06:42:54;97874.84;;;17.59;63.65
53526;BME280;40551;50.478;19.378;2022-07-10T06:45:26;97872.17;;;17.69;63.76
53526;BME280;40551;50.478;19.378;2022-07-10T06:47:58;97875.30;;;17.84;63.69
53526;BME280;40551;50.478;19.378;2022-07-10T06:50:31;97874.84;;;18.26;63.73
53526;BME280;40551;50.478;19.378;2022-07-10T06:53:04;97874.77;;;18.45;62.93
53526;BME280;40551;50.478;19.378;2022-07-10T06:55:36;97878.40;;;18.50;62.20
53526;BME280;40551;50.478;19.378;2022-07-10T06:58:09;97879.05;;;18.44;61.19
53526;BME280;40551;50.478;19.378;2022-07-10T07:00:40;97877.04;;;18.34;60.81
53526;BME280;40551;50.478;19.378;2022-07-10T07:03:12;97873.75;;;18.39;61.28
53526;BME280;40551;50.478;19.378;2022-07-10T07:05:44;97870.02;;;18.72;62.08
53526;BME280;40551;50.478;19.378;2022-07-10T07:08:15;97873.17;;;19.10;61.01
53526;BME280;40551;50.478;19.378;2022-07-10T07:10:47;97864.47;;;19.62;60.59
53526;BME280;40551;50.478;19.378;2022-07-10T07:13:19;97866.73;;;19.96;59.11
53526;BME280;40551;50.478;19.378;2022-07-10T07:15:51;97865.35;;;19.87;57.78
53526;BME280;40551;50.478;19.378;2022-07-10T07:18:29;97871.04;;;19.95;57.59
53526;BME280;40551;50.478;19.378;2022-07-10T07:21:04;97872.09;;;20.01;57.52
53526;BME280;40551;50.478;19.378;2022-07-10T07:23:54;97885.05;;;19.96;56.70
53526;BME280;40551;50.478;19.378;2022-07-10T07:26:26;97888.73;;;19.86;56.65
53526;BME280;40551;50.478;19.378;2022-07-10T07:28:58;97894.10;;;19.60;55.02
53526;BME280;40551;50.478;19.378;2022-07-10T07:31:29;97897.86;;;19.25;55.14
53526;BME280;40551;50.478;19.378;2022-07-10T07:34:01;97900.91;;;18.96;55.71
53526;BME280;40551;50.478;19.378;2022-07-10T07:36:33;97900.56;;;18.63;55.39
53526;BME280;40551;50.478;19.378;2022-07-10T07:39:05;97903.71;;;18.29;56.33
53526;BME280;40551;50.478;19.378;2022-07-10T07:41:38;97907.17;;;17.98;56.41
53526;BME280;40551;50.478;19.378;2022-07-10T07:44:10;97905.20;;;17.73;57.44
53526;BME280;40551;50.478;19.378;2022-07-10T07:46:42;97907.94;;;17.61;58.15
53526;BME280;40551;50.478;19.378;2022-07-10T07:49:14;97900.09;;;17.54;58.56
53526;BME280;40551;50.478;19.378;2022-07-10T07:51:47;97905.39;;;17.51;58.98
53526;BME280;40551;50.478;19.378;2022-07-10T07:54:19;97905.86;;;17.58;59.54
53526;BME280;40551;50.478;19.378;2022-07-10T07:56:51;97905.68;;;17.67;59.11
53526;BME280;40551;50.478;19.378;2022-07-10T07:59:23;97905.31;;;17.72;59.59
53526;BME280;40551;50.478;19.378;2022-07-10T08:01:55;97902.95;;;17.89;59.89
53526;BME280;40551;50.478;19.378;2022-07-10T08:04:27;97905.75;;;18.06;58.51
53526;BME280;40551;50.478;19.378;2022-07-10T08:06:59;97909.33;;;18.12;57.34
53526;BME280;40551;50.478;19.378;2022-07-10T08:09:32;97912.92;;;18.09;54.57
53526;BME280;40551;50.478;19.378;2022-07-10T08:12:07;97915.75;;;17.97;53.85
53526;BME280;40551;50.478;19.378;2022-07-10T08:14:39;97918.03;;;17.82;53.60
53526;BME280;40551;50.478;19.378;2022-07-10T08:17:11;97918.33;;;17.73;54.22
53526;BME280;40551;50.478;19.378;2022-07-10T08:19:43;97916.69;;;17.72;54.03
53526;BME280;40551;50.478;19.378;2022-07-10T08:22:15;97912.40;;;17.69;54.63
53526;BME280;40551;50.478;19.378;2022-07-10T08:24:47;97916.48;;;17.83;55.16
53526;BME280;40551;50.478;19.378;2022-07-10T08:27:19;97914.27;;;18.03;55.10
53526;BME280;40551;50.478;19.378;2022-07-10T08:29:51;97913.77;;;18.26;54.87
53526;BME280;40551;50.478;19.378;2022-07-10T08:32:23;97907.68;;;18.41;53.91
53526;BME280;40551;50.478;19.378;2022-07-10T08:34:54;97905.76;;;18.53;53.77
53526;BME280;40551;50.478;19.378;2022-07-10T08:37:26;97906.61;;;18.68;53.74
53526;BME280;40551;50.478;19.378;2022-07-10T08:39:59;97907.41;;;18.77;53.22
53526;BME280;40551;50.478;19.378;2022-07-10T08:42:33;97908.28;;;18.80;52.47
53526;BME280;40551;50.478;19.378;2022-07-10T08:45:06;97905.95;;;18.77;52.27
53526;BME280;40551;50.478;19.378;2022-07-10T08:47:39;97905.84;;;18.99;52.87
53526;BME280;40551;50.478;19.378;2022-07-10T08:50:21;97905.23;;;19.20;51.86
53526;BME280;40551;50.478;19.378;2022-07-10T08:52:58;97905.61;;;19.12;51.98
53526;BME280;40551;50.478;19.378;2022-07-10T08:55:31;97905.09;;;18.96;51.81
53526;BME280;40551;50.478;19.378;2022-07-10T08:58:04;97911.40;;;18.76;51.78
53526;BME280;40551;50.478;19.378;2022-07-10T09:00:35;97912.13;;;18.51;50.77
53526;BME280;40551;50.478;19.378;2022-07-10T09:03:08;97915.96;;;18.23;50.77
53526;BME280;40551;50.478;19.378;2022-07-10T09:05:40;97915.53;;;17.99;50.67
53526;BME280;40551;50.478;19.378;2022-07-10T09:08:24;97919.52;;;17.78;51.15
53526;BME280;40551;50.478;19.378;2022-07-10T09:11:15;97912.44;;;17.59;51.91
53526;BME280;40551;50.478;19.378;2022-07-10T09:13:53;97910.16;;;17.43;51.97
53526;BME280;40551;50.478;19.378;2022-07-10T09:16:27;97909.60;;;17.32;52.48
53526;BME280;40551;50.478;19.378;2022-07-10T09:19:16;97912.90;;;17.30;53.35
53526;BME280;40551;50.478;19.378;2022-07-10T09:21:49;97911.33;;;17.35;53.35
53526;BME280;40551;50.478;19.378;2022-07-10T09:24:21;97914.35;;;17.42;53.91
53526;BME280;40551;50.478;19.378;2022-07-10T09:27:01;97906.23;;;17.58;54.14
53526;BME280;40551;50.478;19.378;2022-07-10T09:29:46;97907.46;;;17.74;52.86
53526;BME280;40551;50.478;19.378;2022-07-10T09:32:18;97903.49;;;17.86;52.54
53526;BME280;40551;50.478;19.378;2022-07-10T09:34:51;97902.82;;;17.96;52.45
53526;BME280;40551;50.478;19.378;2022-07-10T09:37:43;97903.79;;;18.02;51.62
53526;BME280;40551;50.478;19.378;2022-07-10T09:40:15;97902.31;;;18.07;51.29
53526;BME280;40551;50.478;19.378;2022-07-10T09:42:47;97911.03;;;18.03;51.18
53526;BME280;40551;50.478;19.378;2022-07-10T09:45:21;97911.05;;;17.97;51.68
53526;BME280;40551;50.478;19.378;2022-07-10T09:47:58;97917.42;;;17.79;50.52
53526;BME280;40551;50.478;19.378;2022-07-10T09:50:34;97927.73;;;17.45;50.34
53526;BME280;40551;50.478;19.378;2022-07-10T09:53:08;97936.66;;;17.11;50.86
53526;BME280;40551;50.478;19.378;2022-07-10T09:55:40;97943.73;;;16.73;50.73
53526;BME280;40551;50.478;19.378;2022-07-10T09:58:15;97943.70;;;16.39;50.92
53526;BME280;40551;50.478;19.378;2022-07-10T10:00:47;97948.77;;;16.15;51.58
53526;BME280;40551;50.478;19.378;2022-07-10T10:03:21;97953.23;;;15.95;51.72
53526;BME280;40551;50.478;19.378;2022-07-10T10:05:55;97949.55;;;15.79;52.43
53526;BME280;40551;50.478;19.378;2022-07-10T10:08:31;97949.11;;;15.70;53.02
53526;BME280;40551;50.478;19.378;2022-07-10T10:11:04;97946.19;;;15.60;52.98
53526;BME280;40551;50.478;19.378;2022-07-10T10:13:45;97944.14;;;15.54;53.72
53526;BME280;40551;50.478;19.378;2022-07-10T10:16:17;97940.55;;;15.50;53.76
53526;BME280;40551;50.478;19.378;2022-07-10T10:18:51;97935.84;;;15.52;54.30
53526;BME280;40551;50.478;19.378;2022-07-10T10:21:41;97928.98;;;15.58;54.53
53526;BME280;40551;50.478;19.378;2022-07-10T10:24:14;97925.88;;;15.66;54.58
53526;BME280;40551;50.478;19.378;2022-07-10T10:26:47;97922.60;;;15.74;54.94
53526;BME280;40551;50.478;19.378;2022-07-10T10:29:18;97917.60;;;15.86;54.89
53526;BME280;40551;50.478;19.378;2022-07-10T10:31:51;97917.71;;;16.06;55.07
53526;BME280;40551;50.478;19.378;2022-07-10T10:34:39;97917.11;;;16.24;55.10
53526;BME280;40551;50.478;19.378;2022-07-10T10:37:32;97913.89;;;16.53;54.87
53526;BME280;40551;50.478;19.378;2022-07-10T10:40:06;97912.36;;;16.83;54.23
53526;BME280;40551;50.478;19.378;2022-07-10T10:42:39;97911.19;;;17.07;53.31
53526;BME280;40551;50.478;19.378;2022-07-10T10:45:26;97905.52;;;17.15;51.98
53526;BME280;40551;50.478;19.378;2022-07-10T10:48:04;97903.08;;;17.26;52.61
53526;BME280;40551;50.478;19.378;2022-07-10T10:50:56;97904.36;;;17.42;52.34
53526;BME280;40551;50.478;19.378;2022-07-10T10:53:29;97902.65;;;17.60;52.51
53526;BME280;40551;50.478;19.378;2022-07-10T10:56:23;97901.40;;;17.75;52.17
53526;BME280;40551;50.478;19.378;2022-07-10T10:58:55;97898.03;;;17.89;51.39
53526;BME280;40551;50.478;19.378;2022-07-10T11:01:29;97899.94;;;17.95;50.84
53526;BME280;40551;50.478;19.378;2022-07-10T11:04:19;97901.92;;;17.98;51.15
53526;BME280;40551;50.478;19.378;2022-07-10T11:06:52;97902.41;;;18.10;52.24
53526;BME280;40551;50.478;19.378;2022-07-10T11:09:26;97902.58;;;18.19;51.55
53526;BME280;40551;50.478;19.378;2022-07-10T11:12:05;97901.20;;;18.29;51.04
53526;BME280;40551;50.478;19.378;2022-07-10T11:14:39;97899.22;;;18.38;51.37
53526;BME280;40551;50.478;19.378;2022-07-10T11:17:13;97904.08;;;18.37;49.93
53526;BME280;40551;50.478;19.378;2022-07-10T11:19:44;97903.81;;;18.34;49.74
53526;BME280;40551;50.478;19.378;2022-07-10T11:22:33;97904.56;;;18.38;50.54
53526;BME280;40551;50.478;19.378;2022-07-10T11:25:24;97904.55;;;18.41;50.15
53526;BME280;40551;50.478;19.378;2022-07-10T11:28:07;97905.52;;;18.34;50.33
53526;BME280;40551;50.478;19.378;2022-07-10T11:30:51;97909.41;;;18.34;50.39
53526;BME280;40551;50.478;19.378;2022-07-10T11:33:23;97912.28;;;18.28;50.37
53526;BME280;40551;50.478;19.378;2022-07-10T11:35:57;97907.58;;;18.11;50.61
53526;BME280;40551;50.478;19.378;2022-07-10T11:38:28;97912.44;;;18.03;51.98
53526;BME280;40551;50.478;19.378;2022-07-10T11:41:01;97917.66;;;18.00;52.42
53526;BME280;40551;50.478;19.378;2022-07-10T11:43:33;97915.64;;;17.86;52.44
53526;BME280;40551;50.478;19.378;2022-07-10T11:46:09;97915.27;;;17.78;52.34
53526;BME280;40551;50.478;19.378;2022-07-10T11:48:42;97918.88;;;17.77;52.33
53526;BME280;40551;50.478;19.378;2022-07-10T11:51:20;97912.01;;;17.73;51.43
53526;BME280;40551;50.478;19.378;2022-07-10T11:54:00;97913.20;;;17.70;52.14
53526;BME280;40551;50.478;19.378;2022-07-10T11:56:33;97912.05;;;17.76;52.13
53526;BME280;40551;50.478;19.378;2022-07-10T11:59:06;97916.21;;;17.81;52.39
53526;BME280;40551;50.478;19.378;2022-07-10T12:01:44;97914.21;;;17.86;51.53
53526;BME280;40551;50.478;19.378;2022-07-10T12:04:17;97915.10;;;17.83;51.30
53526;BME280;40551;50.478;19.378;2022-07-10T12:06:49;97912.89;;;17.87;52.07
53526;BME280;40551;50.478;19.378;2022-07-10T12:09:23;97909.66;;;17.98;52.21
53526;BME280;40551;50.478;19.378;2022-07-10T12:12:02;97911.59;;;18.05;51.60
53526;BME280;40551;50.478;19.378;2022-07-10T12:14:34;97906.13;;;18.13;51.05
53526;BME280;40551;50.478;19.378;2022-07-10T12:17:12;97905.53;;;18.19;49.76
53526;BME280;40551;50.478;19.378;2022-07-10T12:19:44;97903.05;;;18.21;48.59
53526;BME280;40551;50.478;19.378;2022-07-10T12:22:16;97908.11;;;18.24;48.35
53526;BME280;40551;50.478;19.378;2022-07-10T12:24:48;97908.58;;;18.26;47.97
53526;BME280;40551;50.478;19.378;2022-07-10T12:27:40;97906.77;;;18.30;47.35
53526;BME280;40551;50.478;19.378;2022-07-10T12:30:12;97906.46;;;18.29;47.53
53526;BME280;40551;50.478;19.378;2022-07-10T12:32:43;97910.11;;;18.28;48.13
53526;BME280;40551;50.478;19.378;2022-07-10T12:35:16;97909.00;;;18.30;45.91
53526;BME280;40551;50.478;19.378;2022-07-10T12:37:52;97911.33;;;18.22;45.97
53526;BME280;40551;50.478;19.378;2022-07-10T12:40:35;97909.45;;;18.16;45.86
53526;BME280;40551;50.478;19.378;2022-07-10T12:43:07;97908.16;;;18.05;45.70
53526;BME280;40551;50.478;19.378;2022-07-10T12:45:41;97908.45;;;17.99;47.04
53526;BME280;40551;50.478;19.378;2022-07-10T12:48:22;97908.52;;;18.00;47.34
53526;BME280;40551;50.478;19.378;2022-07-10T12:50:54;97904.77;;;18.05;48.44
53526;BME280;40551;50.478;19.378;2022-07-10T12:53:26;97904.23;;;18.20;48.46
53526;BME280;40551;50.478;19.378;2022-07-10T12:55:57;97900.58;;;18.32;48.05
53526;BME280;40551;50.478;19.378;2022-07-10T12:58:29;97900.95;;;18.36;47.71
53526;BME280;40551;50.478;19.378;2022-07-10T13:01:01;97898.33;;;18.36;47.19
53526;BME280;40551;50.478;19.378;2022-07-10T13:03:33;97897.71;;;18.35;47.18
53526;BME280;40551;50.478;19.378;2022-07-10T13:06:05;97894.39;;;18.39;47.45
53526;BME280;40551;50.478;19.378;2022-07-10T13:08:46;97895.38;;;18.43;47.47
53526;BME280;40551;50.478;19.378;2022-07-10T13:11:18;97894.45;;;18.51;47.41
53526;BME280;40551;50.478;19.378;2022-07-10T13:13:50;97891.29;;;18.46;46.17
53526;BME280;40551;50.478;19.378;2022-07-10T13:16:22;97895.56;;;18.52;47.48
53526;BME280;40551;50.478;19.378;2022-07-10T13:18:55;97891.83;;;18.58;47.50
53526;BME280;40551;50.478;19.378;2022-07-10T13:21:26;97893.96;;;18.60;47.52
53526;BME280;40551;50.478;19.378;2022-07-10T13:23:58;97894.96;;;18.62;47.29